Rolling Prairie, IN

8:51 PM CDT on September 21, 2014 (GMT -0500)
Starke County | Change Station
CLOSE
Current Station
Airport
Location: Knox,
Elevation: 686 ft
Nearby Weather Stations

Elev 686 ft 41.33 °N, 86.66 °W | Updated 16 minutes ago

Overcast
Overcast
56 °F
Feels Like 56 °F
N
9
Wind Variable Wind from North

Today
High -- | Low -- °F
--% Chance of Precip.
Yesterday
High -- | Low -- °F
Precip. -- in
6:32 AM 6:45 PM
Waning Crescent, 4% visible
Pressure 30.08 in
Visibility 10.0 miles
Clouds Mostly Cloudy 2500 ft
Mostly Cloudy 3400 ft
Overcast 5000 ft
Dew Point 50 °F
Humidity 79%
Rainfall 0.00 in
Snow Depth Not available.
UV 0 out of 12
Pollen 3.20 out of 12
Air Quality Not available.
Flu Activity Not available.
METAR KOXI 220135Z AUTO 36008KT 10SM BKN025 BKN034 OVC050 13/10 A3008 RMK AO1 T01320097

More Conditions Fewer Conditions

Pressure 30.08 in
Visibility 10.0 miles
Clouds Mostly Cloudy 2500 ft
Mostly Cloudy 3400 ft
Overcast 5000 ft
Dew Point 50 °F
Humidity 79%
Rainfall 0.00 in
Snow Depth Not available.
UV 0 out of 12
Pollen 3.20 out of 12
Air Quality Not available.
Flu Activity Not available.
METAR KOXI 220135Z AUTO 36008KT 10SM BKN025 BKN034 OVC050 13/10 A3008 RMK AO1 T01320097

More Conditions Fewer Conditions

10-Day Weather Forecast

Almanac

Astronomy

Sep. 21, 2014 Rise Set
Actual Time 6:32 AM CDT 6:45 PM CDT
Civil Twilight 6:05 AM CDT 7:13 PM CDT
Nautical Twilight 5:32 AM CDT 7:45 PM CDT
Astronomical Twilight 4:59 AM CDT 8:18 PM CDT
Moon 4:04 AM CDT (9/21) 5:22 PM CDT (9/21)
Length of Visible Light 13h 08m
Length of Day
12h 12m
Tomorrow will be 2m 46s shorter.
Waning Crescent, 4% of the Moon is Illuminated
Today
Waning Crescent
Sep 24
New
Oct 1
First Quarter
Oct 8
Full
Oct 15
Last Quarter

Today's Extremes

State Highs State Lows

Community

WunderPhotos

Upload Photos

1,755,347 photos uploaded!

WunderBlogs® & News

Nearby

Snow Depth

Station Depth Elevation
No new snow has been reported.

Earthquake Activity

City Distance Mag. Time & Date
No recent earthquake activity has been reported nearby.
Minimum magnitude displayed is 2.5.

Coastal Water Temperatures

Place Temperature
Holland, MI 61.0 °F

Nearby Weather Stations